This is the latest recevied weather packets stored in our database for station/object XE1GMR. If no packets are shown the sender has not sent any weather packets the latest 10 day(s).
| Time | Temp. | Humidity | Pressure | Rain* | Wind** | Luminosity | Snow |
|---|---|---|---|---|---|---|---|
| 1777834492 | 27.22° C | 43% | 1122.9 hPa | 0 mm | - | 814 W/m² | - |
| 1777834192 | 26.67° C | 47% | 1123.4 hPa | 0 mm | - | 804 W/m² | - |
| 1777833888 | 26.67° C | 45% | 1123.3 hPa | 0 mm | - | 789 W/m² | - |
| 1777833585 | 26.67° C | 47% | 1123.5 hPa | 0 mm | - | 805 W/m² | - |
| 1777833282 | 26.11° C | 47% | 1123.4 hPa | 0 mm | - | 801 W/m² | - |
| 1777832978 | 26.11° C | 48% | 1123.6 hPa | 0 mm | - | 829 W/m² | - |
| 1777832677 | 26.11° C | 49% | 1123.7 hPa | 0 mm | - | 823 W/m² | - |
| 1777832375 | 25.56° C | 49% | 1123.8 hPa | 0 mm | - | 794 W/m² | - |
| 1777832072 | 26.11° C | 48% | 1123.5 hPa | 0 mm | - | 427 W/m² | - |
| 1777831767 | 26.67° C | 47% | 1123.8 hPa | 0 mm | - | 775 W/m² | - |
| 1777831466 | 26.11° C | 47% | 1124.1 hPa | 0 mm | - | 800 W/m² | - |
| 1777831162 | 26.11° C | 48% | 1124.2 hPa | 0 mm | - | 769 W/m² | - |
| 1777830861 | 26.11° C | 48% | 1123.9 hPa | 0 mm | - | 779 W/m² | - |
| 1777830556 | 26.11° C | 49% | 1124.1 hPa | 0 mm | - | 782 W/m² | - |
| 1777830254 | 26.11° C | 49% | 1124.3 hPa | 0 mm | - | 802 W/m² | - |
| 1777829948 | 25.56° C | 51% | 1124.4 hPa | 0 mm | - | 809 W/m² | - |
| 1777829645 | 25.56° C | 51% | 1124.3 hPa | 0 mm | - | 310 W/m² | - |
| 1777829342 | 24.44° C | 53% | 1124.3 hPa | 0 mm | - | 704 W/m² | - |
| 1777829039 | 24.44° C | 52% | 1124.5 hPa | 0 mm | - | 421 W/m² | - |
| 1777828735 | 25° C | 52% | 1124.5 hPa | 0 mm | - | 590 W/m² | - |
| 1777828432 | 25° C | 51% | 1124.6 hPa | 0 mm | - | 741 W/m² | - |
| 1777828130 | 25° C | 52% | 1124.8 hPa | 0 mm | - | 306 W/m² | - |
| 1777827826 | 25° C | 52% | 1124.7 hPa | 0 mm | - | 263 W/m² | - |
| 1777827523 | 25.56° C | 51% | 1124.5 hPa | 0 mm | - | 304 W/m² | - |
| 1777827221 | 25° C | 52% | 1124.8 hPa | 0 mm | - | 620 W/m² | - |
* Rain latest hour (hover to see other rain measurements)
** Current wind speed in m/s (hover to see current wind gust speed)